Time;durP1;ratioP1;P1;durP2;ratioP2;P2;SDS_P1;SDS_P2;PMS_P1;PMS_P2;Temp;Humidity;BMP_temperature;BMP_pressure;BME280_temperature;BME280_humidity;BME280_pressure;Samples;Min_cycle;Max_cycle;Signal;HPM_P1;HPM_P2
2021/12/26 00:01:17;;;;;;;37.20;21.67;;;;;;;6.77;82.04;94506.41;5045751;28;20938;-78
2021/12/26 00:03:44;;;;;;;31.20;18.50;;;;;;;6.80;82.46;94500.97;5097287;28;20487;-78
2021/12/26 00:06:15;;;;;;;34.00;20.87;;;;;;;6.79;81.81;94509.72;5097482;28;20787;-78
2021/12/26 00:08:48;;;;;;;29.47;18.67;;;;;;;6.78;81.62;94513.28;5097580;28;20445;-78
2021/12/26 00:11:18;;;;;;;40.93;21.37;;;;;;;6.75;82.24;94503.09;5045389;28;20446;-78
2021/12/26 00:13:45;;;;;;;32.90;20.13;;;;;;;6.73;82.29;94512.81;5097394;28;20437;-78
2021/12/26 00:16:12;;;;;;;32.47;19.70;;;;;;;6.72;82.13;94503.31;5097148;28;20932;-79
2021/12/26 00:18:44;;;;;;;28.73;18.33;;;;;;;6.68;82.00;94507.13;5096827;28;20772;-79
2021/12/26 00:21:12;;;;;;;33.97;21.27;;;;;;;6.68;81.83;94507.13;5097184;28;20453;-78
2021/12/26 00:23:39;;;;;;;30.20;20.13;;;;;;;6.65;82.11;94501.28;5096614;28;21002;-79
2021/12/26 00:26:07;;;;;;;31.13;20.20;;;;;;;6.64;82.52;94512.66;5097346;28;20452;-78
2021/12/26 00:28:34;;;;;;;30.07;19.60;;;;;;;6.61;82.05;94511.09;5096473;28;20439;-78
2021/12/26 00:31:01;;;;;;;30.30;20.17;;;;;;;6.59;82.14;94496.53;5096081;28;20428;-78
2021/12/26 00:33:28;;;;;;;43.73;25.67;;;;;;;6.48;82.88;94505.16;5097011;28;20444;-79
2021/12/26 00:35:57;;;;;;;35.27;23.40;;;;;;;6.50;82.99;94508.50;5096704;28;20449;-79
2021/12/26 00:38:23;;;;;;;35.90;21.13;;;;;;;6.41;82.38;94493.56;5096725;28;20454;-79
2021/12/26 00:40:50;;;;;;;40.57;23.80;;;;;;;5.87;85.70;94488.84;5097072;28;20444;-79
2021/12/26 00:43:19;;;;;;;37.23;25.03;;;;;;;5.98;84.69;94512.34;5096587;28;20482;-79
2021/12/26 00:45:46;;;;;;;37.90;21.53;;;;;;;6.03;84.55;94502.41;5096641;28;20424;-79
2021/12/26 00:48:13;;;;;;;37.20;22.90;;;;;;;5.93;85.65;94490.19;5096153;28;20448;-78
2021/12/26 00:50:42;;;;;;;43.17;21.87;;;;;;;5.97;84.63;94502.84;5095718;28;20440;-78
2021/12/26 00:53:10;;;;;;;30.10;20.60;;;;;;;6.03;84.78;94510.22;5096281;28;20444;-78
2021/12/26 00:55:37;;;;;;;30.27;21.10;;;;;;;5.98;84.47;94511.50;5096475;28;20468;-78
2021/12/26 00:58:05;;;;;;;38.93;24.43;;;;;;;5.94;85.56;94495.28;5096507;28;20450;-78
2021/12/26 01:00:36;;;;;;;38.33;23.37;;;;;;;5.99;85.57;94510.56;5095851;28;20438;-78
2021/12/26 01:03:05;;;;;;;32.30;22.17;;;;;;;5.99;84.64;94500.16;5028249;28;20987;-78
2021/12/26 01:05:34;;;;;;;39.27;24.77;;;;;;;6.01;85.15;94506.91;5095952;28;20446;-79
2021/12/26 01:08:03;;;;;;;39.10;23.87;;;;;;;6.03;83.99;94498.97;5096448;28;20455;-79
2021/12/26 01:10:35;;;;;;;35.60;24.30;;;;;;;6.04;83.50;94498.03;5096676;28;20521;-79
2021/12/26 01:13:14;;;;;;;41.80;26.07;;;;;;;6.04;83.57;94504.06;5096245;28;20458;-79
2021/12/26 01:15:43;;;;;;;37.70;26.63;;;;;;;5.74;84.95;94496.69;5095839;28;20488;-78
2021/12/26 01:18:10;;;;;;;85.87;50.27;;;;;;;5.46;86.10;94495.22;5095747;28;20536;-78
2021/12/26 01:20:44;;;;;;;68.57;39.27;;;;;;;5.46;85.79;94508.22;5095726;28;20945;-78
2021/12/26 01:23:17;;;;;;;63.17;37.87;;;;;;;5.52;86.33;94499.19;5095348;28;20560;-78
2021/12/26 01:25:45;;;;;;;55.70;32.50;;;;;;;5.53;85.31;94500.84;5095387;28;20935;-78
2021/12/26 01:28:12;;;;;;;59.63;30.43;;;;;;;5.40;85.79;94494.84;5096448;28;20449;-78
2021/12/26 01:30:41;;;;;;;55.53;33.10;;;;;;;5.37;85.85;94493.28;5096373;28;20444;-79
2021/12/26 01:33:11;;;;;;;47.53;30.20;;;;;;;5.39;86.37;94494.00;5096373;28;20851;-78
2021/12/26 01:35:39;;;;;;;28.30;16.73;;;;;;;5.24;89.42;94492.50;5096181;28;20442;-78
2021/12/26 01:38:12;;;;;;;59.27;31.50;;;;;;;5.38;88.17;94481.09;5096197;28;20800;-79
2021/12/26 01:40:40;;;;;;;55.20;31.07;;;;;;;5.51;86.12;94487.94;5094769;28;20464;-79
2021/12/26 01:43:07;;;;;;;60.70;34.23;;;;;;;5.55;86.20;94484.19;5094947;28;20519;-79
2021/12/26 01:45:34;;;;;;;61.83;34.30;;;;;;;5.54;85.42;94471.28;5095023;28;20425;-79
2021/12/26 01:48:04;;;;;;;89.90;43.93;;;;;;;5.42;85.58;94478.19;5094798;28;20935;-79
2021/12/26 01:50:32;;;;;;;58.80;35.57;;;;;;;5.47;84.81;94467.44;5095651;28;20499;-78
2021/12/26 01:52:59;;;;;;;61.60;34.53;;;;;;;5.49;84.80;94468.16;5095136;28;20452;-79
2021/12/26 01:55:38;;;;;;;53.10;30.87;;;;;;;5.50;84.34;94475.88;5094783;28;20991;-79
2021/12/26 01:58:07;;;;;;;34.03;21.23;;;;;;;5.52;84.05;94473.16;5094577;28;20432;-79
2021/12/26 02:00:34;;;;;;;27.90;18.00;;;;;;;5.54;83.76;94464.31;5093899;28;20445;-79
2021/12/26 02:03:01;;;;;;;29.10;17.60;;;;;;;5.54;83.02;94466.91;5041489;28;20487;-79
2021/12/26 02:05:28;;;;;;;25.07;16.80;;;;;;;5.56;82.94;94479.81;5042226;28;21005;-79
2021/12/26 02:07:57;;;;;;;28.83;19.60;;;;;;;5.39;83.06;94456.75;5094263;28;20447;-80
2021/12/26 02:10:24;;;;;;;46.17;26.70;;;;;;;5.12;85.63;94464.75;5094542;28;20447;-79
2021/12/26 02:12:51;;;;;;;28.57;20.27;;;;;;;5.19;85.09;94468.56;5094654;28;20447;-79
2021/12/26 02:15:18;;;;;;;30.17;17.97;;;;;;;5.20;85.54;94459.81;5093952;28;20452;-78
2021/12/26 02:17:45;;;;;;;25.43;17.17;;;;;;;5.04;86.30;94462.69;5094611;28;20466;-78
2021/12/26 02:20:31;;;;;;;34.83;17.77;;;;;;;5.08;86.86;94471.09;5094201;28;20457;-78
2021/12/26 02:23:03;;;;;;;25.70;16.10;;;;;;;4.98;86.54;94443.16;5094410;28;20950;-78
2021/12/26 02:28:15;;;;;;;27.20;16.80;;;;;;;4.84;88.90;94466.66;5093510;28;20954;-78
2021/12/26 02:30:42;;;;;;;29.60;18.23;;;;;;;4.85;88.57;94452.72;5093621;28;20435;-78
2021/12/26 02:33:11;;;;;;;22.87;16.40;;;;;;;4.90;89.29;94465.41;5093825;28;20444;-79
2021/12/26 02:35:40;;;;;;;24.20;16.20;;;;;;;4.98;89.71;94458.75;5093615;28;20934;-79
2021/12/26 02:38:08;;;;;;;27.63;16.53;;;;;;;5.02;89.23;94445.53;5093294;28;20447;-79
2021/12/26 02:40:36;;;;;;;24.20;17.90;;;;;;;5.12;90.43;94462.13;5093352;28;20447;-79
2021/12/26 02:43:04;;;;;;;27.00;16.53;;;;;;;5.19;89.69;94469.41;5093507;28;20465;-80
2021/12/26 02:45:31;;;;;;;26.40;16.40;;;;;;;5.27;88.67;94463.66;5094001;28;20466;-79
2021/12/26 02:47:58;;;;;;;25.73;15.67;;;;;;;5.36;88.87;94463.00;5092899;28;20452;-79
2021/12/26 02:50:27;;;;;;;25.83;16.97;;;;;;;5.44;88.99;94465.06;5092982;28;20443;-79
2021/12/26 02:53:00;;;;;;;28.00;16.90;;;;;;;5.54;87.97;94464.31;5041129;28;20442;-79
2021/12/26 02:55:27;;;;;;;26.17;16.13;;;;;;;5.51;87.45;94437.69;5093542;28;20988;-79
2021/12/26 02:57:57;;;;;;;23.53;15.87;;;;;;;5.57;87.86;94450.25;5041602;28;20453;-79
2021/12/26 03:00:27;;;;;;;20.80;14.43;;;;;;;5.51;87.09;94446.31;5057638;28;20432;-78
2021/12/26 03:02:56;;;;;;;21.93;14.93;;;;;;;5.52;87.99;94442.78;5092436;28;20968;-78
2021/12/26 03:05:26;;;;;;;23.23;16.47;;;;;;;5.55;88.03;94445.16;5057211;28;20433;-79
2021/12/26 03:07:53;;;;;;;24.10;15.10;;;;;;;5.59;87.75;94454.38;5093198;28;20436;-79
2021/12/26 03:10:25;;;;;;;25.43;14.07;;;;;;;5.59;86.90;94448.34;5041346;28;20446;-79
2021/12/26 03:12:54;;;;;;;22.60;14.87;;;;;;;5.55;87.45;94442.53;5092823;28;20858;-79
2021/12/26 03:15:22;;;;;;;29.07;14.60;;;;;;;5.62;87.75;94452.50;5092559;28;20453;-79
2021/12/26 03:17:49;;;;;;;17.37;13.07;;;;;;;5.58;86.83;94442.31;5092684;28;20448;-78
2021/12/26 03:20:20;;;;;;;16.73;13.10;;;;;;;5.65;86.82;94454.88;5093271;28;20445;-79
2021/12/26 03:22:47;;;;;;;19.43;13.53;;;;;;;5.57;86.72;94448.47;5093063;28;20449;-78
2021/12/26 03:25:17;;;;;;;23.93;14.90;;;;;;;5.65;87.51;94441.88;5092780;28;20480;-78
2021/12/26 03:27:46;;;;;;;24.10;13.57;;;;;;;5.42;88.07;94440.91;5093691;28;20433;-79
2021/12/26 03:30:17;;;;;;;32.07;17.83;;;;;;;5.05;89.72;94453.13;5092885;28;20464;-79
2021/12/26 03:32:44;;;;;;;26.63;15.00;;;;;;;5.18;89.84;94446.09;5092908;28;20442;-78
2021/12/26 03:35:12;;;;;;;17.67;12.80;;;;;;;5.29;88.95;94456.59;5092892;28;20810;-80
2021/12/26 03:37:39;;;;;;;22.97;14.13;;;;;;;5.38;89.66;94455.91;5092760;28;20812;-79
2021/12/26 03:40:08;;;;;;;24.10;11.90;;;;;;;5.37;89.33;94443.03;5093098;28;20816;-79
2021/12/26 03:42:36;;;;;;;22.43;13.30;;;;;;;5.46;88.73;94437.16;5092726;28;20451;-79
2021/12/26 03:45:05;;;;;;;24.83;12.70;;;;;;;5.39;88.84;94461.97;5092540;28;20498;-78
2021/12/26 03:47:32;;;;;;;20.07;13.17;;;;;;;5.43;88.46;94463.41;5093048;28;20464;-78
2021/12/26 03:50:00;;;;;;;19.87;12.20;;;;;;;5.44;89.26;94450.28;5092007;28;20539;-79
2021/12/26 03:52:27;;;;;;;20.50;14.07;;;;;;;5.51;88.76;94469.72;5093276;28;20447;-79
2021/12/26 03:54:54;;;;;;;21.67;12.00;;;;;;;5.52;88.85;94473.16;5092442;28;20494;-79
2021/12/26 03:57:21;;;;;;;14.47;10.60;;;;;;;5.30;89.53;94432.25;5040042;28;20450;-79
2021/12/26 03:59:48;;;;;;;20.70;12.43;;;;;;;5.28;90.83;94473.13;5092311;28;20441;-79
2021/12/26 04:02:17;;;;;;;19.00;12.10;;;;;;;5.43;91.22;94474.63;5092979;28;20444;-79
2021/12/26 04:04:44;;;;;;;12.83;10.33;;;;;;;5.24;91.67;94427.47;5095257;28;21001;-78
2021/12/26 04:07:12;;;;;;;18.13;13.07;;;;;;;5.32;90.92;94482.38;5095756;28;20819;-79
2021/12/26 04:09:39;;;;;;;16.77;10.97;;;;;;;5.34;90.34;94441.47;5096186;28;20793;-78
2021/12/26 04:12:07;;;;;;;18.30;11.40;;;;;;;5.28;91.11;94463.56;5096723;28;20456;-78
2021/12/26 04:14:34;;;;;;;21.17;12.03;;;;;;;5.31;91.04;94466.88;5044515;28;20943;-79
2021/12/26 04:17:01;;;;;;;23.70;14.73;;;;;;;5.35;90.42;94469.16;5095787;28;20444;-79
2021/12/26 04:19:30;;;;;;;17.40;11.43;;;;;;;5.38;89.87;94476.72;5095616;28;20447;-79
2021/12/26 04:21:57;;;;;;;20.47;12.47;;;;;;;5.36;90.82;94462.19;5096020;28;20452;-79
2021/12/26 04:24:25;;;;;;;15.60;10.97;;;;;;;5.49;89.69;94482.03;5096698;28;20995;-79
2021/12/26 04:26:52;;;;;;;16.97;11.57;;;;;;;5.57;89.53;94465.84;5095945;28;20512;-78
2021/12/26 04:29:19;;;;;;;20.70;13.00;;;;;;;5.67;89.54;94461.63;5096330;28;20445;-78
2021/12/26 04:31:46;;;;;;;15.57;11.53;;;;;;;5.73;88.56;94461.19;5096328;28;20437;-78
2021/12/26 04:34:12;;;;;;;15.37;11.20;;;;;;;5.85;88.33;94480.31;5096381;28;20452;-78
2021/12/26 04:36:41;;;;;;;18.60;12.40;;;;;;;5.70;88.67;94468.38;5095099;28;20452;-78
2021/12/26 04:39:08;;;;;;;18.83;13.40;;;;;;;5.86;87.40;94477.59;5095347;28;20449;-78
2021/12/26 04:41:35;;;;;;;20.70;13.63;;;;;;;5.89;87.59;94474.78;5095581;28;20447;-79
2021/12/26 04:44:01;;;;;;;17.33;13.67;;;;;;;5.92;86.77;94470.28;5095738;28;20491;-79
2021/12/26 04:46:28;;;;;;;18.83;13.67;;;;;;;5.96;87.57;94482.97;5095163;28;20961;-78
2021/12/26 04:48:55;;;;;;;17.83;13.67;;;;;;;5.93;86.89;94477.16;5095179;28;20460;-78
2021/12/26 04:51:24;;;;;;;22.23;14.23;;;;;;;5.92;86.95;94465.91;5095099;28;20448;-78
2021/12/26 04:53:52;;;;;;;18.77;12.93;;;;;;;5.95;87.05;94491.72;5094884;28;20450;-78
2021/12/26 04:56:19;;;;;;;23.00;13.53;;;;;;;5.55;87.03;94458.16;5095134;28;20478;-78
2021/12/26 04:58:48;;;;;;;23.70;14.90;;;;;;;5.56;88.47;94472.81;5094571;28;20448;-79
2021/12/26 05:01:15;;;;;;;18.23;13.90;;;;;;;5.73;87.36;94481.19;5095026;28;20448;-79
2021/12/26 05:03:42;;;;;;;19.70;15.13;;;;;;;5.77;88.25;94485.22;5094780;28;20978;-79
2021/12/26 05:06:09;;;;;;;21.73;14.30;;;;;;;5.81;87.70;94484.91;5095487;28;20441;-79
2021/12/26 05:08:36;;;;;;;23.90;15.13;;;;;;;5.87;87.09;94481.03;5095975;28;20441;-79
2021/12/26 05:11:05;;;;;;;31.37;17.10;;;;;;;5.92;87.66;94489.34;5095593;28;20452;-79
2021/12/26 05:13:32;;;;;;;29.70;17.93;;;;;;;5.98;86.72;94494.09;5095044;28;20451;-79
2021/12/26 05:15:59;;;;;;;23.83;16.77;;;;;;;6.01;87.15;94480.03;5095380;28;20457;-79
2021/12/26 05:18:26;;;;;;;23.60;15.57;;;;;;;6.01;86.95;94483.47;5095586;28;20448;-79
2021/12/26 05:20:52;;;;;;;24.37;17.10;;;;;;;5.98;86.13;94475.88;5095064;28;20445;-79
2021/12/26 05:23:19;;;;;;;31.47;19.17;;;;;;;5.99;87.20;94487.94;5094562;28;20444;-78
2021/12/26 05:25:46;;;;;;;32.27;19.10;;;;;;;6.03;86.43;94486.78;5094746;28;20491;-80
2021/12/26 05:28:15;;;;;;;36.43;21.90;;;;;;;6.01;86.54;94504.28;5094396;28;20818;-79
2021/12/26 05:30:42;;;;;;;33.10;19.33;;;;;;;6.00;87.03;94510.44;5094586;28;20433;-80
2021/12/26 05:33:09;;;;;;;30.83;17.60;;;;;;;5.75;87.36;94498.34;5094074;28;20448;-79
2021/12/26 05:35:36;;;;;;;32.70;23.13;;;;;;;5.73;88.49;94512.41;5094254;28;20466;-79
2021/12/26 05:38:03;;;;;;;31.07;21.47;;;;;;;5.73;88.60;94515.00;5042390;28;20446;-79
2021/12/26 05:40:30;;;;;;;48.63;29.47;;;;;;;5.70;89.17;94497.03;5094135;28;20437;-78
2021/12/26 05:42:57;;;;;;;42.83;25.33;;;;;;;5.51;90.50;94500.13;5094502;28;20445;-79
2021/12/26 05:45:26;;;;;;;35.30;26.43;;;;;;;5.60;90.34;94517.69;5093911;28;20480;-79
2021/12/26 05:47:53;;;;;;;41.20;28.70;;;;;;;5.69;89.64;94517.00;5093785;28;20456;-79
2021/12/26 05:50:21;;;;;;;44.70;28.23;;;;;;;5.65;90.13;94509.53;5043032;28;20954;-79
2021/12/26 05:52:48;;;;;;;47.80;30.03;;;;;;;5.63;90.73;94517.47;5044321;28;21392;-77
2021/12/26 05:55:17;;;;;;;52.57;28.07;;;;;;;5.73;91.11;94518.44;5094806;28;20467;-79
2021/12/26 05:57:44;;;;;;;46.97;28.43;;;;;;;5.75;90.65;94513.13;5095774;28;20468;-79
2021/12/26 06:00:14;;;;;;;38.60;25.83;;;;;;;5.77;90.28;94504.28;5044369;28;20798;-79
2021/12/26 06:02:42;;;;;;;31.10;22.50;;;;;;;5.69;91.33;94506.59;5096078;28;20447;-79
2021/12/26 06:05:10;;;;;;;41.00;25.97;;;;;;;5.72;90.54;94502.94;5095988;28;20467;-79
2021/12/26 06:07:37;;;;;;;36.40;24.63;;;;;;;5.68;90.85;94501.50;5095513;28;20448;-79
2021/12/26 06:10:08;;;;;;;36.87;23.60;;;;;;;5.72;92.05;94479.50;5095206;28;20433;-79
2021/12/26 06:12:35;;;;;;;44.83;25.70;;;;;;;5.69;91.97;94482.34;5095695;28;20436;-79
2021/12/26 06:15:03;;;;;;;34.37;22.50;;;;;;;5.70;92.98;94486.59;5095382;28;20459;-79
2021/12/26 06:17:30;;;;;;;31.33;20.53;;;;;;;5.69;92.65;94469.31;5095004;28;20439;-80
2021/12/26 06:19:58;;;;;;;34.30;18.90;;;;;;;5.46;93.48;94468.38;5095007;28;20454;-80
2021/12/26 06:22:25;;;;;;;33.50;21.43;;;;;;;5.52;94.54;94466.19;5095605;28;20448;-79
2021/12/26 06:24:52;;;;;;;33.43;19.00;;;;;;;5.46;95.83;94448.38;5095556;28;20480;-79
2021/12/26 06:27:19;;;;;;;39.47;22.33;;;;;;;5.26;96.25;94462.00;5059313;28;20447;-79
2021/12/26 06:29:46;;;;;;;35.33;21.20;;;;;;;4.98;97.91;94426.72;5094320;28;20796;-79
2021/12/26 06:32:14;;;;;;;28.43;19.20;;;;;;;4.79;100.00;94455.75;5095326;28;20527;-79
2021/12/26 06:34:41;;;;;;;31.10;18.90;;;;;;;4.83;100.00;94458.97;5095173;28;20453;-80
2021/12/26 06:37:10;;;;;;;40.87;22.80;;;;;;;4.83;100.00;94438.19;5094894;28;20438;-79
2021/12/26 06:39:37;;;;;;;39.90;21.53;;;;;;;4.66;100.00;94426.38;5095286;28;20524;-79
2021/12/26 06:42:04;;;;;;;47.07;23.33;;;;;;;4.75;100.00;94449.13;5094757;28;20534;-79
2021/12/26 06:44:31;;;;;;;26.10;16.70;;;;;;;4.70;100.00;94414.81;5094342;28;20569;-79
2021/12/26 06:46:58;;;;;;;26.23;18.00;;;;;;;4.86;100.00;94457.00;5094457;28;20450;-79
2021/12/26 06:49:25;;;;;;;26.73;19.23;;;;;;;5.03;100.00;94416.81;5095103;28;20208;-79
2021/12/26 06:51:53;;;;;;;34.17;22.67;;;;;;;5.18;100.00;94443.50;5095237;28;20447;-80
2021/12/26 06:54:21;;;;;;;28.60;17.80;;;;;;;5.19;100.00;94424.34;5094946;28;20456;-79
2021/12/26 06:56:48;;;;;;;69.60;40.77;;;;;;;5.07;100.00;94448.63;5094379;28;20432;-79
2021/12/26 06:59:15;;;;;;;40.70;24.70;;;;;;;5.20;100.00;94439.88;5094228;28;20425;-81
2021/12/26 07:01:44;;;;;;;73.93;38.20;;;;;;;5.27;100.00;94437.66;5093853;28;20429;-80
2021/12/26 07:04:11;;;;;;;29.23;17.83;;;;;;;5.20;100.00;94457.22;5094371;28;20481;-80
2021/12/26 07:06:38;;;;;;;28.70;20.43;;;;;;;5.24;100.00;94436.13;5093703;28;20432;-82
2021/12/26 07:09:05;;;;;;;31.00;18.93;;;;;;;5.28;100.00;94480.94;5094045;28;20439;-81
2021/12/26 07:11:34;;;;;;;45.50;24.83;;;;;;;5.34;100.00;94464.88;5094131;28;20443;-79
2021/12/26 07:14:00;;;;;;;39.83;22.33;;;;;;;5.41;100.00;94494.72;5094080;28;20448;-80
2021/12/26 07:16:27;;;;;;;32.10;21.33;;;;;;;5.52;100.00;94481.81;5093676;28;20428;-79
2021/12/26 07:18:54;;;;;;;32.07;19.40;;;;;;;5.60;100.00;94487.28;5094132;28;20465;-81
2021/12/26 07:21:22;;;;;;;38.67;18.73;;;;;;;5.73;100.00;94521.06;5093807;28;20443;-79
2021/12/26 07:23:49;;;;;;;27.30;17.73;;;;;;;5.65;100.00;94497.34;5094425;28;20452;-79
2021/12/26 07:26:16;;;;;;;34.20;20.67;;;;;;;5.79;100.00;94510.22;5093421;28;20487;-80
2021/12/26 07:28:44;;;;;;;56.10;26.30;;;;;;;5.87;99.92;94517.47;5093899;28;20778;-79
2021/12/26 07:31:11;;;;;;;49.23;27.10;;;;;;;5.90;99.20;94512.91;5093713;28;20451;-79
2021/12/26 07:33:39;;;;;;;48.37;26.10;;;;;;;5.99;99.38;94508.78;5093964;28;20436;-79
2021/12/26 07:36:07;;;;;;;34.37;21.37;;;;;;;5.91;99.93;94511.13;5093673;28;20452;-79
2021/12/26 07:38:34;;;;;;;70.90;36.23;;;;;;;5.97;99.08;94510.69;5094420;28;20438;-79
2021/12/26 07:41:01;;;;;;;44.20;29.83;;;;;;;6.06;99.93;94509.16;5098010;28;20436;-80
2021/12/26 07:43:28;;;;;;;53.93;29.13;;;;;;;5.93;99.51;94504.03;5097183;28;20896;-80
2021/12/26 07:45:56;;;;;;;59.17;38.60;;;;;;;5.99;99.36;94498.38;5046257;28;20855;-80
2021/12/26 07:48:23;;;;;;;34.87;23.07;;;;;;;5.80;100.00;94524.06;5045691;28;20445;-80
2021/12/26 07:50:50;;;;;;;44.97;28.40;;;;;;;5.96;100.00;94516.81;5098223;28;20460;-80
2021/12/26 07:53:17;;;;;;;41.20;29.40;;;;;;;5.66;100.00;94495.59;5097355;28;20451;-81
2021/12/26 07:55:44;;;;;;;41.97;30.00;;;;;;;5.89;100.00;94519.06;5098607;28;20476;-80
2021/12/26 07:58:13;;;;;;;42.60;26.47;;;;;;;5.86;100.00;94497.59;5098261;28;20448;-80
2021/12/26 08:00:40;;;;;;;47.87;26.17;;;;;;;6.04;100.00;94495.41;5097665;28;20445;-79
2021/12/26 08:03:09;;;;;;;37.40;25.77;;;;;;;6.16;100.00;94518.81;5045355;28;20445;-79
2021/12/26 08:05:36;;;;;;;106.87;62.00;;;;;;;5.88;100.00;94480.91;5104052;28;20991;-80
2021/12/26 08:08:05;;;;;;;70.00;47.70;;;;;;;5.70;100.00;94492.66;5117325;28;20441;-80
2021/12/26 08:10:32;;;;;;;66.10;42.70;;;;;;;6.02;100.00;94507.72;5118130;28;20513;-80
2021/12/26 08:12:59;;;;;;;40.80;27.40;;;;;;;6.11;100.00;94492.28;5117962;28;20431;-81
2021/12/26 08:15:26;;;;;;;48.93;28.57;;;;;;;6.28;100.00;94482.38;5117366;28;20455;-80
2021/12/26 08:17:53;;;;;;;44.77;25.60;;;;;;;6.26;100.00;94471.22;5117771;28;20529;-80
2021/12/26 08:20:21;;;;;;;44.30;28.37;;;;;;;6.33;100.00;94483.69;5117176;28;20440;-81
2021/12/26 08:22:48;;;;;;;39.37;25.30;;;;;;;6.46;100.00;94460.16;5117326;28;20444;-80
2021/12/26 08:25:15;;;;;;;80.03;37.67;;;;;;;6.22;100.00;94447.19;5117378;28;20481;-80
2021/12/26 08:27:42;;;;;;;65.87;43.97;;;;;;;6.33;100.00;94446.38;5118334;28;20428;-81
2021/12/26 08:30:10;;;;;;;55.53;35.03;;;;;;;6.46;100.00;94454.94;5117233;28;20448;-79
2021/12/26 08:32:40;;;;;;;46.50;29.00;;;;;;;6.52;100.00;94437.06;5117210;28;20899;-79
2021/12/26 08:35:08;;;;;;;52.33;30.13;;;;;;;6.65;100.00;94470.00;5112142;28;20522;-80
2021/12/26 08:37:38;;;;;;;41.23;28.03;;;;;;;6.64;99.65;94445.69;5117006;28;20848;-80
2021/12/26 08:40:06;;;;;;;48.37;27.17;;;;;;;6.72;99.37;94445.13;5117524;28;20457;-78
2021/12/26 08:42:33;;;;;;;46.23;29.57;;;;;;;6.83;99.39;94466.81;5073700;28;20448;-79
2021/12/26 08:45:02;;;;;;;42.93;30.50;;;;;;;6.96;99.00;94484.16;5096618;28;20474;-80
2021/12/26 08:47:28;;;;;;;26.50;18.20;;;;;;;6.93;97.41;94466.94;5113905;28;20453;-80
2021/12/26 08:49:55;;;;;;;42.30;25.13;;;;;;;6.93;96.80;94481.75;5116392;28;20460;-80
2021/12/26 08:52:24;;;;;;;31.57;21.07;;;;;;;7.07;96.68;94466.69;5117427;28;20429;-80
2021/12/26 08:54:53;;;;;;;28.03;16.63;;;;;;;7.12;97.07;94458.50;5117153;28;20583;-80
2021/12/26 08:57:20;;;;;;;28.80;20.70;;;;;;;7.29;96.85;94471.06;5117030;28;20444;-80
2021/12/26 08:59:47;;;;;;;21.93;15.83;;;;;;;7.42;96.12;94452.66;5116947;28;20455;-80
2021/12/26 09:02:14;;;;;;;23.20;15.93;;;;;;;7.50;94.15;94467.69;5116399;28;20940;-80
2021/12/26 09:04:41;;;;;;;21.83;14.17;;;;;;;7.63;93.40;94471.84;5115886;28;20463;-80
2021/12/26 09:07:09;;;;;;;30.27;19.07;;;;;;;7.69;91.88;94452.22;5116422;28;20477;-79
2021/12/26 09:09:36;;;;;;;36.43;21.30;;;;;;;7.78;91.96;94467.16;5116357;28;20923;-79
2021/12/26 09:12:06;;;;;;;25.13;16.93;;;;;;;7.80;91.39;94461.81;5116620;28;20438;-80
2021/12/26 09:14:33;;;;;;;25.90;18.20;;;;;;;7.76;91.50;94469.88;5079385;28;20456;-80
2021/12/26 09:17:01;;;;;;;26.80;18.20;;;;;;;7.88;90.75;94473.31;5116613;28;20798;-80
2021/12/26 09:19:29;;;;;;;22.50;15.47;;;;;;;7.76;89.61;94461.22;5104896;28;20433;-80
2021/12/26 09:21:57;;;;;;;31.20;18.63;;;;;;;7.56;89.71;94455.00;5096310;28;20442;-80
2021/12/26 09:24:29;;;;;;;28.87;20.70;;;;;;;7.59;90.56;94461.78;5108134;28;20444;-80
2021/12/26 09:26:56;;;;;;;28.87;20.00;;;;;;;7.53;90.51;94470.09;5051903;28;20474;-82
2021/12/26 09:29:25;;;;;;;23.93;16.20;;;;;;;7.39;90.63;94465.94;5115354;28;20487;-79
2021/12/26 09:31:53;;;;;;;22.80;18.33;;;;;;;7.37;93.23;94444.38;5115842;28;21015;-80
2021/12/26 09:34:20;;;;;;;27.37;18.30;;;;;;;7.40;93.79;94491.09;5115332;28;20830;-79
2021/12/26 09:36:49;;;;;;;56.73;30.70;;;;;;;7.17;95.20;94466.81;5115498;28;20802;-80
2021/12/26 09:39:17;;;;;;;35.90;22.00;;;;;;;7.21;95.58;94470.81;5115914;28;20748;-80
2021/12/26 09:41:44;;;;;;;40.57;23.87;;;;;;;7.26;95.43;94441.78;5115933;28;20891;-79
2021/12/26 09:44:13;;;;;;;43.93;21.67;;;;;;;7.30;95.78;94492.78;5115954;28;20459;-79
2021/12/26 09:46:41;;;;;;;23.83;17.20;;;;;;;7.27;96.28;94462.53;5115332;28;20834;-79
2021/12/26 09:49:08;;;;;;;20.13;15.40;;;;;;;7.15;93.30;94473.94;5113108;28;20471;-79
2021/12/26 09:51:35;;;;;;;21.83;15.67;;;;;;;7.29;93.49;94506.78;5113520;28;20451;-79
2021/12/26 09:54:04;;;;;;;30.87;21.10;;;;;;;7.28;93.22;94445.94;5115277;28;20460;-79
2021/12/26 09:56:31;;;;;;;41.20;26.57;;;;;;;7.09;94.94;94466.59;5115528;28;21349;-79
2021/12/26 09:59:01;;;;;;;32.53;22.87;;;;;;;7.31;94.67;94499.66;5115370;28;20480;-79
2021/12/26 10:01:31;;;;;;;33.27;22.10;;;;;;;7.45;94.55;94457.63;5115227;28;20442;-80
2021/12/26 10:04:01;;;;;;;29.70;20.40;;;;;;;7.53;93.77;94464.88;5115361;28;20909;-80
2021/12/26 10:06:33;;;;;;;33.40;20.03;;;;;;;7.61;93.63;94485.97;5115085;28;20470;-79
2021/12/26 10:09:20;;;;;;;43.90;25.70;;;;;;;7.67;93.10;94464.59;5115193;28;20934;-80
2021/12/26 10:11:49;;;;;;;37.23;23.90;;;;;;;7.76;93.35;94492.56;5115356;28;20469;-80
2021/12/26 10:14:18;;;;;;;24.57;17.10;;;;;;;7.90;93.09;94478.41;5115127;28;20573;-80
2021/12/26 10:16:46;;;;;;;21.93;16.03;;;;;;;8.04;92.26;94480.72;5115313;28;20529;-80
2021/12/26 10:19:15;;;;;;;17.60;12.40;;;;;;;8.11;90.84;94473.22;5114819;28;20455;-80
2021/12/26 10:21:43;;;;;;;20.77;13.03;;;;;;;8.23;89.71;94467.00;5115527;28;20460;-79
2021/12/26 10:24:15;;;;;;;18.20;13.90;;;;;;;8.39;89.36;94477.88;5115092;28;20458;-80
2021/12/26 10:26:46;;;;;;;19.60;13.60;;;;;;;8.55;89.25;94472.19;5115295;28;20493;-80
2021/12/26 10:29:20;;;;;;;17.20;13.63;;;;;;;8.65;88.18;94471.28;5114891;28;20522;-80
2021/12/26 10:32:09;;;;;;;16.80;12.47;;;;;;;8.78;88.04;94485.97;5114499;28;20801;-79
2021/12/26 10:34:42;;;;;;;41.23;25.17;;;;;;;8.77;86.98;94471.22;5031779;28;20449;-81
2021/12/26 10:37:12;;;;;;;32.37;22.10;;;;;;;8.83;85.66;94475.94;5024158;28;20450;-79
2021/12/26 10:39:42;;;;;;;35.40;21.20;;;;;;;8.91;86.03;94500.47;5032242;28;20445;-80
2021/12/26 10:42:13;;;;;;;31.33;19.43;;;;;;;9.02;86.08;94502.22;4978836;28;20443;-79
2021/12/26 10:44:42;;;;;;;34.33;19.67;;;;;;;9.13;84.68;94488.19;5030294;28;20450;-79
2021/12/26 10:47:12;;;;;;;25.63;14.60;;;;;;;9.10;83.88;94494.53;5032161;28;20478;-79
2021/12/26 10:49:48;;;;;;;30.13;18.03;;;;;;;9.24;84.28;94478.44;5032253;28;20445;-79
2021/12/26 10:52:18;;;;;;;29.33;18.13;;;;;;;9.18;83.29;94473.75;5032258;28;20448;-79
2021/12/26 10:54:50;;;;;;;48.57;27.63;;;;;;;9.19;85.26;94462.31;5031917;28;20501;-79
2021/12/26 10:57:21;;;;;;;50.30;28.90;;;;;;;9.20;85.08;94435.19;5032167;28;20442;-79
2021/12/26 11:00:00;;;;;;;40.03;23.70;;;;;;;9.32;85.29;94446.41;5031850;28;20504;-79
2021/12/26 11:02:29;;;;;;;43.93;26.30;;;;;;;9.39;84.63;94457.97;5031862;28;20449;-79
2021/12/26 11:05:02;;;;;;;42.50;23.23;;;;;;;9.50;83.91;94464.88;5031854;28;20567;-79
2021/12/26 11:07:31;;;;;;;37.87;20.43;;;;;;;9.64;83.30;94459.28;4984075;28;20934;-79
2021/12/26 11:10:08;;;;;;;31.97;19.47;;;;;;;9.71;82.93;94465.63;5032046;28;20499;-79
2021/12/26 11:12:42;;;;;;;27.20;16.73;;;;;;;9.81;82.18;94479.56;5106890;28;20991;-79
2021/12/26 11:15:11;;;;;;;28.50;16.57;;;;;;;9.95;81.35;94470.50;5114252;28;20539;-79
2021/12/26 11:17:42;;;;;;;19.80;13.47;;;;;;;10.08;79.88;94483.31;5114726;28;20434;-79
2021/12/26 11:20:17;;;;;;;20.40;13.83;;;;;;;10.16;79.67;94486.13;5115059;28;20442;-79
2021/12/26 11:22:44;;;;;;;24.77;16.03;;;;;;;10.30;79.49;94495.38;5114097;28;20450;-79
2021/12/26 11:25:11;;;;;;;18.60;12.63;;;;;;;10.26;78.47;94478.28;5061744;28;20439;-79
2021/12/26 11:27:38;;;;;;;23.20;14.13;;;;;;;10.28;79.66;94477.16;5114203;28;20475;-78
2021/12/26 11:30:07;;;;;;;23.60;15.17;;;;;;;10.34;77.82;94478.41;5114049;28;20431;-79
2021/12/26 11:32:35;;;;;;;27.87;18.80;;;;;;;10.40;77.58;94470.78;5013026;28;20917;-79